Time;durP1;ratioP1;P1;durP2;ratioP2;P2;SDS_P1;SDS_P2;PMS_P1;PMS_P2;Temp;Humidity;BMP_temperature;BMP_pressure;BME280_temperature;BME280_humidity;BME280_pressure;Samples;Min_cycle;Max_cycle;Signal;HPM_P1;HPM_P2
2021/06/24 00:01:58;;;;;;;4.97;2.03;;;;;;;20.90;49.40;102070.50;5053663;28;20017;-58
2021/06/24 00:04:23;;;;;;;4.70;2.20;;;;;;;20.89;49.25;102074.94;5052419;28;20026;-58
2021/06/24 00:06:49;;;;;;;4.75;2.10;;;;;;;20.89;49.56;102082.06;5053449;28;20031;-58
2021/06/24 00:09:14;;;;;;;4.63;2.13;;;;;;;20.88;49.31;102080.38;5053139;28;20021;-58
2021/06/24 00:11:40;;;;;;;4.53;2.03;;;;;;;20.88;49.48;102078.56;5052537;28;20116;-58
2021/06/24 00:14:06;;;;;;;4.60;2.20;;;;;;;20.89;49.49;102079.41;5053115;28;20021;-59
2021/06/24 00:16:31;;;;;;;4.63;2.38;;;;;;;20.88;49.67;102072.41;5053449;28;20028;-57
2021/06/24 00:18:56;;;;;;;4.85;2.40;;;;;;;20.87;49.42;102079.53;5052304;28;20029;-58
2021/06/24 00:21:22;;;;;;;5.53;2.20;;;;;;;20.87;49.51;102086.59;5052786;28;20043;-58
2021/06/24 00:23:48;;;;;;;4.30;2.30;;;;;;;20.84;49.57;102074.44;5053029;28;20064;-59
2021/06/24 00:26:13;;;;;;;3.67;1.80;;;;;;;20.83;49.21;102081.53;5051665;28;20077;-58
2021/06/24 00:28:38;;;;;;;4.30;1.88;;;;;;;20.86;49.34;102079.63;5053089;28;20017;-58
2021/06/24 00:31:04;;;;;;;3.97;1.90;;;;;;;20.85;49.44;102081.44;5052751;28;20036;-59
2021/06/24 00:33:30;;;;;;;4.05;2.20;;;;;;;20.84;49.20;102077.94;5052269;28;20048;-58
2021/06/24 00:35:56;;;;;;;4.68;2.20;;;;;;;20.84;49.21;102077.94;5052716;28;20498;-58
2021/06/24 00:38:21;;;;;;;4.38;2.15;;;;;;;20.84;49.44;102082.41;5052421;28;20086;-58
2021/06/24 00:40:46;;;;;;;4.72;2.10;;;;;;;20.83;49.45;102076.22;5051967;28;20021;-58
2021/06/24 00:43:15;;;;;;;5.07;2.10;;;;;;;20.82;49.33;102079.00;5052407;28;20025;-58
2021/06/24 00:45:44;;;;;;;5.10;2.15;;;;;;;20.82;49.66;102079.88;5052581;28;20032;-58
2021/06/24 00:48:13;;;;;;;4.57;2.10;;;;;;;20.82;49.26;102069.25;5051558;28;20108;-58
2021/06/24 00:50:44;;;;;;;4.72;1.98;;;;;;;20.82;49.54;102071.91;5052409;28;20469;-58
2021/06/24 00:53:10;;;;;;;4.22;2.30;;;;;;;20.82;49.50;102077.22;5052170;28;20102;-58
2021/06/24 00:55:45;;;;;;;4.38;1.77;;;;;;;20.79;49.47;102064.19;5051651;28;20025;-58
2021/06/24 00:58:22;;;;;;;4.47;1.98;;;;;;;20.81;49.42;102067.56;5052291;28;20032;-58
2021/06/24 01:00:50;;;;;;;4.90;2.22;;;;;;;20.81;49.35;102058.78;5051760;28;20033;-58
2021/06/24 01:03:16;;;;;;;4.18;2.05;;;;;;;20.81;49.43;102050.84;5051897;28;20049;-58
2021/06/24 01:05:42;;;;;;;4.00;2.05;;;;;;;20.81;49.36;102050.84;5052088;28;20047;-58
2021/06/24 01:08:10;;;;;;;5.82;1.98;;;;;;;20.81;49.42;102056.13;5051393;28;20442;-57
2021/06/24 01:10:36;;;;;;;5.45;2.10;;;;;;;20.80;49.44;102054.44;5052317;28;20021;-57
2021/06/24 01:13:04;;;;;;;4.50;2.03;;;;;;;20.79;49.38;102053.59;5051868;28;20090;-58
2021/06/24 01:15:30;;;;;;;5.28;2.03;;;;;;;20.80;49.30;102057.91;5051264;28;20090;-58
2021/06/24 01:17:57;;;;;;;5.28;1.80;;;;;;;20.79;49.38;102052.72;5051984;28;20025;-58
2021/06/24 01:20:37;;;;;;;3.65;1.90;;;;;;;20.77;49.45;102039.59;5051653;28;20036;-58
2021/06/24 01:23:04;;;;;;;4.43;1.92;;;;;;;20.78;49.44;102043.94;5050974;28;20028;-58
2021/06/24 01:25:30;;;;;;;4.22;2.00;;;;;;;20.78;49.36;102040.47;5051669;28;20064;-58
2021/06/24 01:28:06;;;;;;;4.10;2.03;;;;;;;20.77;49.28;102044.88;5051947;28;20065;-58
2021/06/24 01:30:33;;;;;;;4.28;2.00;;;;;;;20.78;49.29;102043.09;5051091;28;20485;-57
2021/06/24 01:32:58;;;;;;;4.85;2.10;;;;;;;20.77;49.25;102038.75;5051661;28;20437;-58
2021/06/24 01:35:26;;;;;;;3.75;1.75;;;;;;;20.76;49.44;102040.56;5051687;28;20025;-57
2021/06/24 01:38:01;;;;;;;3.85;2.20;;;;;;;20.76;49.55;102037.94;5054951;28;20414;-59
2021/06/24 01:40:27;;;;;;;4.22;1.90;;;;;;;20.77;49.51;102033.47;5054335;28;20044;-59
2021/06/24 01:42:53;;;;;;;5.20;2.08;;;;;;;20.76;49.46;102023.81;5054250;28;20047;-59
2021/06/24 01:45:19;;;;;;;4.93;1.92;;;;;;;20.75;49.51;102028.28;5051743;28;20069;-59
2021/06/24 01:47:48;;;;;;;5.07;1.80;;;;;;;20.74;49.39;102026.56;5051868;28;20024;-58
2021/06/24 01:50:13;;;;;;;4.97;2.00;;;;;;;20.75;49.33;102025.63;5050711;28;20375;-58
2021/06/24 01:52:43;;;;;;;5.15;2.20;;;;;;;20.75;49.59;102022.13;5052253;28;20099;-59
2021/06/24 01:55:10;;;;;;;4.15;1.90;;;;;;;20.73;49.24;102027.56;5054199;28;20403;-59
2021/06/24 01:57:36;;;;;;;3.05;1.70;;;;;;;20.74;49.45;102025.75;5051215;28;20039;-59
2021/06/24 02:00:08;;;;;;;3.38;1.90;;;;;;;20.73;49.52;102024.91;5051998;28;20028;-58
2021/06/24 02:02:33;;;;;;;4.13;1.88;;;;;;;20.73;49.33;102022.25;5053781;28;20101;-58
2021/06/24 02:04:58;;;;;;;4.13;2.00;;;;;;;20.71;49.39;102023.31;5055799;28;20221;-59
2021/06/24 02:07:26;;;;;;;6.75;2.58;;;;;;;20.71;49.21;102026.84;5056043;28;20029;-58
2021/06/24 02:09:51;;;;;;;4.85;2.00;;;;;;;20.73;49.55;102030.19;5058446;28;20094;-58
2021/06/24 02:12:20;;;;;;;4.07;1.80;;;;;;;20.72;49.26;102025.00;5055208;28;20021;-58
2021/06/24 02:14:45;;;;;;;4.68;1.90;;;;;;;20.73;49.14;102027.56;5055662;28;20369;-58
2021/06/24 02:17:10;;;;;;;4.47;2.00;;;;;;;20.72;49.27;102017.91;5055782;28;20128;-57
2021/06/24 02:19:38;;;;;;;5.57;2.13;;;;;;;20.70;49.37;102026.94;5055562;28;20421;-58
2021/06/24 02:22:04;;;;;;;3.38;1.70;;;;;;;20.71;49.33;102028.63;5058861;28;20306;-60
2021/06/24 02:24:29;;;;;;;4.13;1.83;;;;;;;20.69;49.46;102028.72;5059877;28;20032;-58
2021/06/24 02:26:54;;;;;;;4.53;1.70;;;;;;;20.70;49.43;102030.44;5059136;28;20032;-58
2021/06/24 02:29:23;;;;;;;3.43;1.70;;;;;;;20.70;49.43;102026.94;5059377;28;20052;-58
2021/06/24 02:31:48;;;;;;;4.70;2.00;;;;;;;20.69;49.37;102028.72;5059563;28;20717;-58
2021/06/24 02:34:16;;;;;;;5.35;1.88;;;;;;;20.71;49.29;102028.63;5056682;28;20465;-58
2021/06/24 02:36:42;;;;;;;4.15;1.92;;;;;;;20.70;49.25;102026.94;5056667;28;20051;-58
2021/06/24 02:39:07;;;;;;;3.42;1.90;;;;;;;20.69;49.28;102019.94;5055504;28;20028;-58
2021/06/24 02:41:33;;;;;;;5.82;2.00;;;;;;;20.68;49.42;102027.06;5057959;28;20048;-58
2021/06/24 02:43:59;;;;;;;4.50;1.85;;;;;;;20.67;49.33;102019.22;5057691;28;20021;-58
2021/06/24 02:46:24;;;;;;;3.72;1.98;;;;;;;20.68;49.37;102011.16;5056483;28;20490;-58
2021/06/24 02:48:56;;;;;;;3.67;1.70;;;;;;;20.67;49.51;102005.97;5057519;28;20032;-58
2021/06/24 02:51:21;;;;;;;5.60;2.13;;;;;;;20.67;49.38;102013.91;5057118;28;20297;-59
2021/06/24 02:53:46;;;;;;;4.75;2.03;;;;;;;20.68;49.28;102016.47;5056064;28;20037;-60
2021/06/24 02:56:11;;;;;;;4.50;1.80;;;;;;;20.68;49.54;102026.19;5054945;28;20391;-58
2021/06/24 02:58:37;;;;;;;3.92;2.03;;;;;;;20.67;49.39;102017.41;5054902;28;20277;-57
2021/06/24 03:01:05;;;;;;;4.07;2.10;;;;;;;20.67;49.25;102013.91;5053652;28;20021;-58
2021/06/24 03:03:30;;;;;;;3.40;1.90;;;;;;;20.66;49.41;102013.06;5054848;28;20029;-57
2021/06/24 03:05:55;;;;;;;3.70;2.00;;;;;;;20.67;49.18;102011.28;5054566;28;20496;-57
2021/06/24 03:08:21;;;;;;;4.70;2.00;;;;;;;20.65;49.35;102017.53;5053440;28;20025;-58
2021/06/24 03:10:47;;;;;;;4.10;2.10;;;;;;;20.60;49.34;102003.75;5054493;28;20021;-59
2021/06/24 03:13:13;;;;;;;4.30;1.90;;;;;;;20.63;49.30;102008.81;5054238;28;20033;-58
2021/06/24 03:15:43;;;;;;;6.95;2.03;;;;;;;20.65;49.19;102006.91;5053496;28;20523;-58
2021/06/24 03:18:11;;;;;;;5.18;1.90;;;;;;;20.62;49.29;102003.63;5053910;28;20021;-58
2021/06/24 03:20:37;;;;;;;5.82;1.92;;;;;;;20.63;49.31;102007.94;5052883;28;20447;-59
2021/06/24 03:23:02;;;;;;;4.30;1.92;;;;;;;20.62;49.35;102009.75;5053117;28;20132;-58
2021/06/24 03:25:27;;;;;;;6.82;1.90;;;;;;;20.62;49.37;102009.75;5053873;28;20061;-59
2021/06/24 03:27:54;;;;;;;4.25;2.05;;;;;;;20.62;49.27;102004.47;5054241;28;20021;-58
2021/06/24 03:30:20;;;;;;;4.03;2.00;;;;;;;20.62;49.07;102006.28;5053024;28;20025;-58
2021/06/24 03:32:46;;;;;;;4.20;2.00;;;;;;;20.61;49.46;102002.75;5053894;28;20380;-58
2021/06/24 03:35:11;;;;;;;5.15;1.95;;;;;;;20.61;49.40;101999.28;5053546;28;20122;-58
2021/06/24 03:37:37;;;;;;;3.75;1.80;;;;;;;20.61;49.39;102008.06;5052950;28;20029;-58
2021/06/24 03:40:08;;;;;;;3.60;1.92;;;;;;;20.61;49.01;102008.06;5053341;28;20047;-58
2021/06/24 03:42:34;;;;;;;4.95;2.00;;;;;;;20.60;49.32;102009.03;5052949;28;20396;-58
2021/06/24 03:45:00;;;;;;;4.00;2.13;;;;;;;20.59;49.14;102012.63;5053626;28;20017;-58
2021/06/24 03:47:25;;;;;;;5.10;1.90;;;;;;;20.61;49.22;102012.53;5053208;28;20039;-58
2021/06/24 03:49:50;;;;;;;4.67;2.00;;;;;;;20.59;49.15;102007.34;5052816;28;20048;-57
2021/06/24 03:52:16;;;;;;;3.97;2.10;;;;;;;20.60;49.17;102010.81;5053057;28;20342;-58
2021/06/24 03:54:41;;;;;;;4.32;2.40;;;;;;;20.60;49.26;102010.81;5053366;28;20021;-58
2021/06/24 03:57:09;;;;;;;4.80;1.90;;;;;;;20.59;49.06;102001.22;5052465;28;20033;-58
2021/06/24 03:59:35;;;;;;;5.47;2.00;;;;;;;20.59;49.16;102010.00;5053499;28;20024;-58
2021/06/24 04:02:00;;;;;;;4.93;1.90;;;;;;;20.55;49.21;102000.56;5053538;28;20025;-58
2021/06/24 04:04:25;;;;;;;4.07;1.95;;;;;;;20.58;49.30;102005.63;5051979;28;20104;-57
2021/06/24 04:06:51;;;;;;;4.35;1.85;;;;;;;20.58;49.26;102010.94;5053160;28;20017;-58
2021/06/24 04:09:16;;;;;;;5.33;2.10;;;;;;;20.56;49.18;102004.91;5052903;28;20072;-58
2021/06/24 04:11:41;;;;;;;5.28;2.05;;;;;;;20.58;49.26;102010.94;5052249;28;20789;-58
2021/06/24 04:14:07;;;;;;;4.50;1.88;;;;;;;20.57;49.07;102011.91;5053066;28;20029;-58
2021/06/24 04:16:32;;;;;;;6.78;1.92;;;;;;;20.57;49.02;102006.63;5053257;28;20028;-58
2021/06/24 04:18:58;;;;;;;4.10;1.92;;;;;;;20.57;49.07;102001.31;5052376;28;20017;-58
2021/06/24 04:21:23;;;;;;;3.28;1.80;;;;;;;20.58;49.26;102002.16;5052602;28;20107;-58
2021/06/24 04:23:48;;;;;;;4.03;1.75;;;;;;;20.57;49.07;102003.09;5052849;28;20024;-57
2021/06/24 04:26:14;;;;;;;3.95;2.05;;;;;;;20.56;49.03;102004.06;5051678;28;20175;-58
2021/06/24 04:28:39;;;;;;;5.30;1.88;;;;;;;20.55;49.16;102000.56;5053035;28;20071;-58
2021/06/24 04:31:06;;;;;;;3.92;1.80;;;;;;;20.56;49.20;101999.63;5052488;28;20502;-59
2021/06/24 04:33:31;;;;;;;4.55;1.80;;;;;;;20.55;49.16;102010.31;5051456;28;20418;-58
2021/06/24 04:35:57;;;;;;;4.80;1.90;;;;;;;20.55;49.17;102007.66;5052550;28;20099;-59
2021/06/24 04:38:22;;;;;;;5.03;2.10;;;;;;;20.54;49.30;102004.19;5052248;28;20086;-59
2021/06/24 04:40:50;;;;;;;4.20;1.67;;;;;;;20.55;49.19;102005.84;5052046;28;20029;-59
2021/06/24 04:43:15;;;;;;;5.00;2.00;;;;;;;20.55;49.04;102002.38;5052387;28;20032;-58
2021/06/24 04:45:41;;;;;;;4.60;1.87;;;;;;;20.54;49.11;101996.25;5051645;28;20037;-58
2021/06/24 04:48:07;;;;;;;4.90;1.85;;;;;;;20.54;49.24;101996.25;5052358;28;20270;-58
2021/06/24 04:50:32;;;;;;;4.05;1.92;;;;;;;20.55;49.28;101997.09;5052112;28;20488;-58
2021/06/24 04:52:57;;;;;;;4.35;2.40;;;;;;;20.54;49.24;101992.75;5050332;28;20504;-58
2021/06/24 04:55:23;;;;;;;4.97;2.05;;;;;;;20.54;49.33;101996.25;5052205;28;20036;-58
2021/06/24 04:57:51;;;;;;;5.22;1.70;;;;;;;20.54;49.19;101993.59;5052343;28;20051;-57
2021/06/24 05:00:17;;;;;;;3.85;1.88;;;;;;;20.54;49.19;101990.13;5051375;28;20043;-58
2021/06/24 05:02:42;;;;;;;5.15;2.00;;;;;;;20.54;49.05;101993.59;5052339;28;20043;-58
2021/06/24 05:05:10;;;;;;;4.50;1.90;;;;;;;20.55;49.29;101994.44;5051888;28;20031;-58
2021/06/24 05:07:36;;;;;;;5.35;1.90;;;;;;;20.54;49.06;101996.25;5051467;28;20270;-58
2021/06/24 05:10:26;;;;;;;3.85;1.83;;;;;;;20.54;49.05;101990.94;5052192;28;20487;-56
2021/06/24 05:12:56;;;;;;;3.45;1.75;;;;;;;20.54;49.34;101992.75;5052379;28;20028;-56
2021/06/24 05:15:21;;;;;;;4.10;1.80;;;;;;;20.53;49.23;101991.91;5051028;28;20369;-58
2021/06/24 05:17:50;;;;;;;4.18;1.70;;;;;;;20.53;49.53;101997.19;5052093;28;20029;-59
2021/06/24 05:20:16;;;;;;;5.30;2.10;;;;;;;20.53;49.36;101996.34;5052587;28;20017;-59
2021/06/24 05:22:41;;;;;;;2.95;1.50;;;;;;;20.51;49.47;101992.97;5051353;28;20052;-58
2021/06/24 05:25:08;;;;;;;4.18;2.03;;;;;;;20.51;49.36;101987.69;5051932;28;20512;-58
2021/06/24 05:27:34;;;;;;;4.55;1.90;;;;;;;20.52;49.23;101992.00;5052215;28;20108;-59
2021/06/24 05:29:59;;;;;;;4.30;1.73;;;;;;;20.47;49.74;101989.69;5051296;28;20203;-59
2021/06/24 05:32:24;;;;;;;5.32;2.03;;;;;;;20.52;49.27;101992.00;5051415;28;20270;-59
2021/06/24 05:34:49;;;;;;;5.88;2.03;;;;;;;20.50;49.61;101994.78;5051747;28;20029;-58
2021/06/24 05:37:17;;;;;;;2.97;1.70;;;;;;;20.50;49.43;101989.47;5050667;28;20033;-58
2021/06/24 05:39:43;;;;;;;4.57;1.83;;;;;;;20.50;49.26;101991.28;5051964;28;20096;-58
2021/06/24 05:42:11;;;;;;;4.22;1.90;;;;;;;20.50;49.28;101997.41;5050888;28;20047;-58
2021/06/24 05:44:36;;;;;;;3.42;1.67;;;;;;;20.50;49.49;101994.78;5050978;28;20082;-58
2021/06/24 05:47:04;;;;;;;3.83;2.00;;;;;;;20.49;49.49;101990.44;5051392;28;20033;-58
2021/06/24 05:49:29;;;;;;;4.40;1.75;;;;;;;20.50;49.38;101993.94;5051247;28;20278;-58
2021/06/24 05:51:58;;;;;;;4.03;1.83;;;;;;;20.47;49.54;101989.69;5051646;28;20147;-58
2021/06/24 05:54:24;;;;;;;5.30;2.00;;;;;;;20.47;49.54;101990.56;5051577;28;20017;-59
2021/06/24 05:56:49;;;;;;;3.97;1.85;;;;;;;20.46;49.63;101990.66;5050875;28;20035;-58
2021/06/24 05:59:14;;;;;;;5.43;2.15;;;;;;;20.46;49.61;101982.72;5051446;28;20392;-57
2021/06/24 06:01:47;;;;;;;4.80;2.10;;;;;;;20.47;49.51;101989.69;5051835;28;20471;-58
2021/06/24 06:04:14;;;;;;;4.72;2.28;;;;;;;20.48;49.50;101981.63;5050916;28;20033;-57
2021/06/24 06:06:40;;;;;;;4.20;1.70;;;;;;;20.48;49.64;101979.00;5051759;28;20029;-59
2021/06/24 06:09:06;;;;;;;3.85;1.85;;;;;;;20.49;49.81;101979.84;5051490;28;20417;-58
2021/06/24 06:11:31;;;;;;;3.90;1.70;;;;;;;20.52;49.92;101987.56;5051050;28;20025;-57
2021/06/24 06:13:56;;;;;;;4.45;1.80;;;;;;;20.53;50.01;101983.13;5051856;28;20021;-57
2021/06/24 06:16:22;;;;;;;4.22;1.90;;;;;;;20.55;50.07;101982.03;5051499;28;20053;-57
2021/06/24 06:18:47;;;;;;;4.00;1.65;;;;;;;20.57;50.12;101985.44;5050619;28;20029;-55
2021/06/24 06:21:13;;;;;;;4.80;1.83;;;;;;;20.57;50.18;101977.47;5051647;28;20108;-57
2021/06/24 06:23:38;;;;;;;4.55;1.92;;;;;;;20.59;50.18;101980.03;5052041;28;20102;-58
2021/06/24 06:26:06;;;;;;;5.90;1.77;;;;;;;20.60;50.18;101979.03;5050097;28;20401;-57
2021/06/24 06:28:32;;;;;;;4.22;1.80;;;;;;;20.61;50.41;101976.28;5051192;28;20017;-57
2021/06/24 06:30:59;;;;;;;5.88;2.20;;;;;;;20.61;50.20;101978.94;5051375;28;20051;-57
2021/06/24 06:33:24;;;;;;;6.88;2.03;;;;;;;20.62;50.20;101971.84;5050366;28;20071;-57
2021/06/24 06:35:51;;;;;;;5.80;2.00;;;;;;;20.62;50.23;101970.03;5051175;28;20025;-57
2021/06/24 06:38:17;;;;;;;5.65;1.83;;;;;;;20.63;50.72;101974.38;5050194;28;20033;-59
2021/06/24 06:40:42;;;;;;;4.35;2.10;;;;;;;20.64;50.41;101976.09;5051089;28;20029;-57
2021/06/24 06:43:08;;;;;;;6.22;2.03;;;;;;;20.63;50.80;101966.44;5050915;28;20047;-56
2021/06/24 06:45:35;;;;;;;4.95;1.70;;;;;;;20.65;50.64;101975.13;5050225;28;20088;-58
2021/06/24 06:48:06;;;;;;;5.90;1.95;;;;;;;20.64;50.62;101969.94;5051300;28;20040;-57
2021/06/24 06:50:31;;;;;;;6.82;2.00;;;;;;;20.65;50.83;101969.00;5051269;28;20400;-51
2021/06/24 06:52:57;;;;;;;5.93;2.00;;;;;;;20.66;51.02;101973.31;5050330;28;20103;-55
2021/06/24 06:55:28;;;;;;;5.07;2.50;;;;;;;20.65;50.72;101967.19;5052102;28;20025;-58
2021/06/24 06:57:53;;;;;;;5.53;2.40;;;;;;;20.64;50.42;101964.66;5054741;28;20063;-57
2021/06/24 07:00:19;;;;;;;6.25;2.40;;;;;;;20.63;50.60;101960.28;5060293;28;20017;-58
2021/06/24 07:02:45;;;;;;;5.97;2.50;;;;;;;20.62;50.77;101972.69;5058290;28;20035;-58
2021/06/24 07:05:10;;;;;;;6.53;2.10;;;;;;;20.62;50.77;101967.38;5054586;28;20439;-57
2021/06/24 07:07:36;;;;;;;4.95;2.30;;;;;;;20.64;50.95;101975.25;5054629;28;20307;-58
2021/06/24 07:10:01;;;;;;;5.67;1.97;;;;;;;20.65;50.62;101974.31;5056805;28;20029;-57
2021/06/24 07:12:26;;;;;;;3.95;1.65;;;;;;;20.65;50.75;101969.84;5055181;28;20270;-58
2021/06/24 07:15:13;;;;;;;5.40;1.97;;;;;;;20.67;51.01;101974.19;5054273;28;20021;-57
2021/06/24 07:17:39;;;;;;;5.32;2.22;;;;;;;20.67;50.95;101969.72;5055252;28;20270;-57
2021/06/24 07:20:05;;;;;;;4.53;1.73;;;;;;;20.69;50.91;101978.41;5057034;28;20062;-57
2021/06/24 07:22:30;;;;;;;7.35;2.08;;;;;;;20.69;50.97;101981.03;5057239;28;20029;-56
2021/06/24 07:24:55;;;;;;;4.03;1.80;;;;;;;20.69;50.70;101986.34;5054350;28;20037;-57
2021/06/24 07:27:20;;;;;;;6.50;1.98;;;;;;;20.69;51.03;101986.34;5056495;28;20029;-57
2021/06/24 07:29:46;;;;;;;5.60;1.90;;;;;;;20.70;50.90;101981.91;5054144;28;20032;-59
2021/06/24 07:32:11;;;;;;;5.33;2.10;;;;;;;20.68;50.96;101976.72;5054224;28;20777;-58
2021/06/24 07:34:36;;;;;;;7.75;1.88;;;;;;;20.71;50.85;101984.44;5054509;28;20680;-56
2021/06/24 07:37:02;;;;;;;4.63;1.80;;;;;;;20.72;50.82;101982.63;5054113;28;20094;-58
2021/06/24 07:39:27;;;;;;;5.63;1.90;;;;;;;20.71;50.76;101981.78;5054145;28;20031;-59
2021/06/24 07:41:52;;;;;;;4.43;1.65;;;;;;;20.74;50.88;101989.50;5053570;28;20378;-59
2021/06/24 07:44:18;;;;;;;3.17;1.70;;;;;;;20.73;50.78;101986.94;5054248;28;20036;-56
2021/06/24 07:46:44;;;;;;;4.43;1.70;;;;;;;20.73;51.04;101986.94;5054231;28;20312;-57
2021/06/24 07:49:10;;;;;;;4.40;2.20;;;;;;;20.73;51.04;101989.59;5053189;28;20296;-58
2021/06/24 07:51:35;;;;;;;4.30;1.90;;;;;;;20.73;50.81;101994.91;5054410;28;20461;-58
2021/06/24 07:54:00;;;;;;;4.47;1.80;;;;;;;20.74;50.81;101994.78;5053747;28;20036;-58
2021/06/24 07:56:25;;;;;;;3.87;1.80;;;;;;;20.75;50.90;101993.00;5052853;28;20052;-57
2021/06/24 07:58:52;;;;;;;4.77;1.53;;;;;;;20.74;50.95;101983.34;5054255;28;20277;-57
2021/06/24 08:01:18;;;;;;;3.53;1.58;;;;;;;20.75;50.74;101983.25;5053993;28;20301;-58
2021/06/24 08:03:43;;;;;;;5.25;1.77;;;;;;;20.75;50.86;101982.41;5053119;28;20032;-58
2021/06/24 08:06:08;;;;;;;6.70;1.80;;;;;;;20.74;51.26;101978.06;5053005;28;20108;-57
2021/06/24 08:08:34;;;;;;;4.28;2.10;;;;;;;20.76;50.78;101973.47;5053300;28;20076;-57
2021/06/24 08:11:00;;;;;;;3.83;1.73;;;;;;;20.76;51.02;101973.47;5052891;28;20021;-55
2021/06/24 08:13:27;;;;;;;5.03;1.90;;;;;;;20.75;50.99;101974.47;5053300;28;20496;-56
2021/06/24 08:15:53;;;;;;;4.07;1.80;;;;;;;20.75;50.99;101977.94;5053184;28;20025;-56
2021/06/24 08:18:19;;;;;;;6.63;2.00;;;;;;;20.75;50.98;101977.09;5052306;28;20056;-55
2021/06/24 08:20:45;;;;;;;5.45;2.17;;;;;;;20.75;50.98;101983.25;5053227;28;20028;-64
2021/06/24 08:23:10;;;;;;;6.13;2.00;;;;;;;20.76;50.91;101984.06;5052912;28;20025;-58
2021/06/24 08:25:35;;;;;;;6.28;2.10;;;;;;;20.74;51.36;101986.00;5051972;28;20049;-57
2021/06/24 08:28:01;;;;;;;5.93;2.28;;;;;;;20.75;51.12;101987.69;5052863;28;20044;-57
2021/06/24 08:30:26;;;;;;;4.60;2.13;;;;;;;20.74;51.10;101986.84;5052616;28;20078;-61
2021/06/24 08:32:51;;;;;;;6.50;2.03;;;;;;;20.74;51.16;101988.66;5051664;28;20021;-56
2021/06/24 08:35:22;;;;;;;4.57;1.80;;;;;;;20.73;50.80;101992.25;5052324;28;20358;-56
2021/06/24 08:37:50;;;;;;;6.75;2.08;;;;;;;20.72;51.12;101985.28;5051775;28;20270;-57
2021/06/24 08:40:16;;;;;;;5.07;1.83;;;;;;;20.71;50.97;101988.88;5052508;28;20040;-57
2021/06/24 08:42:42;;;;;;;5.00;2.20;;;;;;;20.70;50.88;101989.84;5052727;28;20033;-57
2021/06/24 08:45:08;;;;;;;5.22;1.90;;;;;;;20.68;50.88;101983.81;5051639;28;20055;-56
2021/06/24 08:47:35;;;;;;;5.15;2.00;;;;;;;20.67;50.86;101987.44;5052444;28;20025;-57
2021/06/24 08:50:01;;;;;;;5.80;2.08;;;;;;;20.67;50.99;101990.09;5052977;28;20449;-56
2021/06/24 08:52:27;;;;;;;9.50;2.95;;;;;;;20.65;50.82;101996.31;5051839;28;20075;-57
2021/06/24 08:54:53;;;;;;;6.55;2.22;;;;;;;20.65;50.81;101991.03;5052699;28;20025;-57
2021/06/24 08:57:19;;;;;;;4.95;1.90;;;;;;;20.64;50.83;101997.28;5052407;28;20024;-57
2021/06/24 08:59:47;;;;;;;4.80;2.00;;;;;;;20.62;51.09;101996.53;5051957;28;20025;-56
2021/06/24 09:02:15;;;;;;;5.63;2.28;;;;;;;20.62;50.77;102001.81;5052146;28;20028;-57
2021/06/24 09:04:49;;;;;;;3.33;1.80;;;;;;;20.61;50.87;102002.75;5052431;28;20048;-56
2021/06/24 09:07:20;;;;;;;4.90;1.63;;;;;;;20.61;50.76;102000.13;5051739;28;20372;-56
2021/06/24 09:09:54;;;;;;;5.35;2.13;;;;;;;20.61;50.88;102007.22;5052452;28;20041;-55
2021/06/24 09:12:19;;;;;;;4.97;1.95;;;;;;;20.60;50.81;102003.75;5052025;28;20027;-55
2021/06/24 09:14:49;;;;;;;4.15;1.88;;;;;;;20.60;50.72;102008.16;5051607;28;20033;-57
2021/06/24 09:17:33;;;;;;;4.00;1.95;;;;;;;20.60;50.58;102006.38;5051841;28;20053;-55
2021/06/24 09:19:59;;;;;;;6.13;1.80;;;;;;;20.59;50.41;102009.16;5050845;28;20061;-56
2021/06/24 09:22:25;;;;;;;5.85;2.60;;;;;;;20.59;50.64;102011.81;5052013;28;20021;-56
2021/06/24 09:24:50;;;;;;;5.30;1.88;;;;;;;20.58;50.78;102010.94;5051888;28;20029;-55
2021/06/24 09:27:19;;;;;;;4.45;2.00;;;;;;;20.59;50.44;102011.81;5051057;28;20082;-56
2021/06/24 09:29:51;;;;;;;4.78;1.95;;;;;;;20.59;50.64;102010.00;5051983;28;20444;-57
2021/06/24 09:32:31;;;;;;;6.40;2.22;;;;;;;20.58;50.56;102018.88;5051916;28;20338;-54
2021/06/24 09:34:57;;;;;;;3.92;1.73;;;;;;;20.58;50.37;102013.59;5051563;28;20021;-57
2021/06/24 09:37:22;;;;;;;3.90;1.90;;;;;;;20.58;50.49;102012.75;5051807;28;20029;-57
2021/06/24 09:39:48;;;;;;;5.17;2.00;;;;;;;20.57;50.58;102011.91;5051749;28;20025;-56
2021/06/24 09:42:14;;;;;;;4.78;1.85;;;;;;;20.58;50.40;102020.69;5051015;28;20281;-56
2021/06/24 09:44:45;;;;;;;5.30;1.83;;;;;;;20.57;50.60;102019.00;5052177;28;20021;-55
2021/06/24 09:47:29;;;;;;;5.05;1.65;;;;;;;20.56;50.53;102012.84;5051468;28;20519;-56
2021/06/24 09:50:04;;;;;;;4.85;2.10;;;;;;;20.57;50.37;102016.34;5051020;28;20024;-56
2021/06/24 09:52:32;;;;;;;3.40;1.60;;;;;;;20.56;50.37;102004.91;5051712;28;20025;-56
2021/06/24 09:55:10;;;;;;;4.95;2.00;;;;;;;20.57;50.31;102009.25;5051594;28;20056;-55
2021/06/24 09:57:37;;;;;;;4.25;2.10;;;;;;;20.56;50.59;102017.31;5051604;28;20376;-56
2021/06/24 10:00:21;;;;;;;5.93;1.75;;;;;;;20.57;50.32;102016.34;5051275;28;20525;-56
2021/06/24 10:03:12;;;;;;;4.32;1.75;;;;;;;20.56;50.28;102012.03;5051145;28;20044;-55
2021/06/24 10:05:39;;;;;;;4.65;1.80;;;;;;;20.56;50.47;102010.22;5051439;28;20380;-56
2021/06/24 10:08:05;;;;;;;4.85;1.75;;;;;;;20.56;50.68;102012.84;5051581;28;20104;-56
2021/06/24 10:10:30;;;;;;;4.15;1.90;;;;;;;20.56;50.16;102010.22;5050878;28;21003;-57
2021/06/24 10:12:55;;;;;;;4.43;1.55;;;;;;;20.57;50.46;102013.69;5051609;28;20021;-57
2021/06/24 10:15:22;;;;;;;5.78;1.90;;;;;;;20.56;50.30;102006.72;5051363;28;20032;-56
2021/06/24 10:17:48;;;;;;;3.90;1.90;;;;;;;20.56;50.38;102004.06;5050757;28;20036;-57
2021/06/24 10:20:14;;;;;;;4.65;2.03;;;;;;;20.57;50.29;102003.09;5051362;28;20029;-56
2021/06/24 10:22:41;;;;;;;4.10;2.30;;;;;;;20.56;50.20;102009.38;5051544;28;20021;-57
2021/06/24 10:25:12;;;;;;;3.65;1.80;;;;;;;20.57;50.22;102008.41;5049925;28;20041;-56
2021/06/24 10:27:40;;;;;;;5.00;2.15;;;;;;;20.58;50.28;102008.28;5051474;28;20029;-56
2021/06/24 10:30:16;;;;;;;4.30;1.70;;;;;;;20.58;49.95;102013.59;5052108;28;20025;-57
2021/06/24 10:32:44;;;;;;;5.03;1.92;;;;;;;20.58;50.28;102015.41;5055161;28;20028;-58
2021/06/24 10:35:32;;;;;;;3.95;2.15;;;;;;;20.58;49.94;101999.50;5053524;28;20029;-57
2021/06/24 10:37:58;;;;;;;5.15;2.08;;;;;;;20.58;49.89;102002.16;5054389;28;20051;-56
2021/06/24 10:40:33;;;;;;;5.03;2.25;;;;;;;20.59;50.19;102001.22;5054812;28;20028;-56
2021/06/24 10:43:01;;;;;;;8.20;6.25;;;;;;;20.58;50.38;102002.16;5054833;28;20506;-57
2021/06/24 10:45:27;;;;;;;13.77;12.18;;;;;;;20.60;50.36;102009.03;5054287;28;20029;-57
2021/06/24 10:47:55;;;;;;;15.77;13.57;;;;;;;20.61;50.55;102000.13;5055392;28;20431;-57
2021/06/24 10:50:27;;;;;;;14.73;13.05;;;;;;;20.66;50.73;102002.47;5054810;28;20075;-57
2021/06/24 10:52:53;;;;;;;15.93;13.65;;;;;;;20.68;51.11;102003.22;5054202;28;20036;-57
2021/06/24 10:55:35;;;;;;;17.10;14.23;;;;;;;20.72;51.25;101994.06;5054688;28;20408;-57
2021/06/24 10:58:12;;;;;;;14.88;13.35;;;;;;;20.74;51.48;101988.66;5054964;28;20101;-57
2021/06/24 11:00:47;;;;;;;17.80;14.43;;;;;;;20.76;51.42;101997.31;5054100;28;20036;-58
2021/06/24 11:03:13;;;;;;;;;;;;;;;20.78;51.32;101993.59;5054857;28;20033;-56
2021/06/24 11:05:43;;;;;;;15.57;13.38;;;;;;;20.79;51.38;101991.78;5053698;28;19916;-57
2021/06/24 11:08:44;;;;;;;15.05;12.68;;;;;;;20.81;51.56;101992.53;5054311;28;20029;-58
2021/06/24 11:11:12;;;;;;;13.13;11.80;;;;;;;20.82;51.53;101995.09;5050421;28;20037;-57
2021/06/24 11:13:38;;;;;;;13.35;11.50;;;;;;;20.82;51.49;101994.22;5053763;28;20028;-60
2021/06/24 11:16:09;;;;;;;14.88;11.30;;;;;;;20.81;51.47;101997.84;5054283;28;20029;-58
2021/06/24 11:18:35;;;;;;;11.85;10.50;;;;;;;20.79;51.51;101997.97;5054704;28;20040;-59
2021/06/24 11:21:02;;;;;;;13.57;10.65;;;;;;;20.80;51.31;101996.97;5053986;28;20021;-59
2021/06/24 11:23:34;;;;;;;12.10;10.02;;;;;;;20.79;51.47;102000.59;5054747;28;20025;-57
2021/06/24 11:26:28;;;;;;;11.45;9.88;;;;;;;20.78;51.49;102000.72;5054229;28;20164;-57